sensor_id;sensor_type;location;lat;lon;timestamp;P1;durP1;ratioP1;P2;durP2;ratioP2
5951;SDS011;3001;42.622;23.194;2023-06-22T00:02:26;6.03;;;5.73;;
5951;SDS011;3001;42.622;23.194;2023-06-22T00:04:53;5.57;;;5.20;;
5951;SDS011;3001;42.622;23.194;2023-06-22T00:07:20;7.00;;;6.60;;
5951;SDS011;3001;42.622;23.194;2023-06-22T00:09:46;6.37;;;5.53;;
5951;SDS011;3001;42.622;23.194;2023-06-22T00:12:13;6.33;;;5.83;;
5951;SDS011;3001;42.622;23.194;2023-06-22T00:14:40;6.43;;;6.03;;
5951;SDS011;3001;42.622;23.194;2023-06-22T00:17:06;6.97;;;6.47;;
5951;SDS011;3001;42.622;23.194;2023-06-22T00:19:34;6.33;;;6.03;;
5951;SDS011;3001;42.622;23.194;2023-06-22T00:22:01;6.10;;;5.60;;
5951;SDS011;3001;42.622;23.194;2023-06-22T00:24:28;5.90;;;5.50;;
5951;SDS011;3001;42.622;23.194;2023-06-22T00:26:55;6.27;;;5.73;;
5951;SDS011;3001;42.622;23.194;2023-06-22T00:29:21;6.20;;;5.87;;
5951;SDS011;3001;42.622;23.194;2023-06-22T00:31:48;6.40;;;5.90;;
5951;SDS011;3001;42.622;23.194;2023-06-22T00:34:15;6.60;;;6.20;;
5951;SDS011;3001;42.622;23.194;2023-06-22T00:36:43;6.43;;;6.03;;
5951;SDS011;3001;42.622;23.194;2023-06-22T00:39:10;6.77;;;6.27;;
5951;SDS011;3001;42.622;23.194;2023-06-22T00:41:37;6.63;;;6.33;;
5951;SDS011;3001;42.622;23.194;2023-06-22T00:44:03;6.70;;;6.20;;
5951;SDS011;3001;42.622;23.194;2023-06-22T00:46:31;6.03;;;5.73;;
5951;SDS011;3001;42.622;23.194;2023-06-22T00:48:58;6.03;;;5.70;;
5951;SDS011;3001;42.622;23.194;2023-06-22T00:51:26;6.40;;;5.90;;
5951;SDS011;3001;42.622;23.194;2023-06-22T00:53:54;6.70;;;6.30;;
5951;SDS011;3001;42.622;23.194;2023-06-22T00:56:21;7.10;;;6.60;;
5951;SDS011;3001;42.622;23.194;2023-06-22T00:58:50;6.70;;;6.30;;
5951;SDS011;3001;42.622;23.194;2023-06-22T01:01:18;6.00;;;5.70;;
5951;SDS011;3001;42.622;23.194;2023-06-22T01:03:48;6.77;;;6.37;;
5951;SDS011;3001;42.622;23.194;2023-06-22T01:06:17;7.17;;;6.77;;
5951;SDS011;3001;42.622;23.194;2023-06-22T01:08:53;6.50;;;6.20;;
5951;SDS011;3001;42.622;23.194;2023-06-22T01:11:35;7.20;;;6.80;;
5951;SDS011;3001;42.622;23.194;2023-06-22T01:14:09;7.17;;;6.57;;
5951;SDS011;3001;42.622;23.194;2023-06-22T01:16:41;8.53;;;6.70;;
5951;SDS011;3001;42.622;23.194;2023-06-22T01:19:16;13.40;;;6.63;;
5951;SDS011;3001;42.622;23.194;2023-06-22T01:22:01;7.27;;;6.87;;
5951;SDS011;3001;42.622;23.194;2023-06-22T01:24:32;6.70;;;6.30;;
5951;SDS011;3001;42.622;23.194;2023-06-22T01:27:07;6.93;;;6.53;;
5951;SDS011;3001;42.622;23.194;2023-06-22T01:29:48;6.50;;;6.10;;
5951;SDS011;3001;42.622;23.194;2023-06-22T01:32:16;6.43;;;6.13;;
5951;SDS011;3001;42.622;23.194;2023-06-22T01:34:44;7.37;;;6.80;;
5951;SDS011;3001;42.622;23.194;2023-06-22T01:37:12;6.97;;;6.57;;
5951;SDS011;3001;42.622;23.194;2023-06-22T01:39:39;6.30;;;6.00;;
5951;SDS011;3001;42.622;23.194;2023-06-22T01:42:07;7.37;;;6.87;;
5951;SDS011;3001;42.622;23.194;2023-06-22T01:44:33;7.30;;;6.77;;
5951;SDS011;3001;42.622;23.194;2023-06-22T01:47:02;9.60;;;6.10;;
5951;SDS011;3001;42.622;23.194;2023-06-22T01:49:28;7.20;;;6.70;;
5951;SDS011;3001;42.622;23.194;2023-06-22T01:51:56;7.17;;;6.77;;
5951;SDS011;3001;42.622;23.194;2023-06-22T01:54:22;6.83;;;6.43;;
5951;SDS011;3001;42.622;23.194;2023-06-22T01:56:49;7.93;;;7.37;;
5951;SDS011;3001;42.622;23.194;2023-06-22T01:59:25;7.10;;;6.70;;
5951;SDS011;3001;42.622;23.194;2023-06-22T02:01:57;7.63;;;7.23;;
5951;SDS011;3001;42.622;23.194;2023-06-22T02:04:31;8.03;;;7.57;;
5951;SDS011;3001;42.622;23.194;2023-06-22T02:07:02;7.40;;;6.90;;
5951;SDS011;3001;42.622;23.194;2023-06-22T02:09:35;7.83;;;7.33;;
5951;SDS011;3001;42.622;23.194;2023-06-22T02:12:04;7.57;;;7.13;;
5951;SDS011;3001;42.622;23.194;2023-06-22T02:14:33;10.30;;;7.90;;
5951;SDS011;3001;42.622;23.194;2023-06-22T02:17:01;8.23;;;7.47;;
5951;SDS011;3001;42.622;23.194;2023-06-22T02:19:31;7.30;;;6.90;;
5951;SDS011;3001;42.622;23.194;2023-06-22T02:21:58;7.90;;;7.43;;
5951;SDS011;3001;42.622;23.194;2023-06-22T02:24:25;7.87;;;7.40;;
5951;SDS011;3001;42.622;23.194;2023-06-22T02:26:51;8.43;;;7.83;;
5951;SDS011;3001;42.622;23.194;2023-06-22T02:29:18;7.80;;;7.33;;
5951;SDS011;3001;42.622;23.194;2023-06-22T02:31:45;8.50;;;8.00;;
5951;SDS011;3001;42.622;23.194;2023-06-22T02:34:11;8.63;;;8.00;;
5951;SDS011;3001;42.622;23.194;2023-06-22T02:36:45;8.60;;;8.00;;
5951;SDS011;3001;42.622;23.194;2023-06-22T02:39:16;8.97;;;8.20;;
5951;SDS011;3001;42.622;23.194;2023-06-22T02:41:43;9.03;;;8.43;;
5951;SDS011;3001;42.622;23.194;2023-06-22T02:44:10;8.87;;;8.27;;
5951;SDS011;3001;42.622;23.194;2023-06-22T02:46:37;9.97;;;9.10;;
5951;SDS011;3001;42.622;23.194;2023-06-22T02:49:03;9.20;;;8.60;;
5951;SDS011;3001;42.622;23.194;2023-06-22T02:51:32;9.70;;;8.80;;
5951;SDS011;3001;42.622;23.194;2023-06-22T02:54:02;9.20;;;8.70;;
5951;SDS011;3001;42.622;23.194;2023-06-22T02:56:29;9.67;;;8.97;;
5951;SDS011;3001;42.622;23.194;2023-06-22T02:58:55;10.07;;;9.30;;
5951;SDS011;3001;42.622;23.194;2023-06-22T03:01:26;10.00;;;9.30;;
5951;SDS011;3001;42.622;23.194;2023-06-22T03:03:53;9.90;;;8.90;;
5951;SDS011;3001;42.622;23.194;2023-06-22T03:06:20;10.40;;;9.70;;
5951;SDS011;3001;42.622;23.194;2023-06-22T03:08:48;9.50;;;8.93;;
5951;SDS011;3001;42.622;23.194;2023-06-22T03:11:16;10.00;;;9.37;;
5951;SDS011;3001;42.622;23.194;2023-06-22T03:13:43;10.20;;;9.57;;
5951;SDS011;3001;42.622;23.194;2023-06-22T03:16:10;13.23;;;9.97;;
5951;SDS011;3001;42.622;23.194;2023-06-22T03:18:37;10.10;;;9.40;;
5951;SDS011;3001;42.622;23.194;2023-06-22T03:21:04;10.40;;;9.73;;
5951;SDS011;3001;42.622;23.194;2023-06-22T03:23:30;9.87;;;9.23;;
5951;SDS011;3001;42.622;23.194;2023-06-22T03:25:57;9.40;;;8.90;;
5951;SDS011;3001;42.622;23.194;2023-06-22T03:28:25;10.50;;;9.67;;
5951;SDS011;3001;42.622;23.194;2023-06-22T03:30:52;11.07;;;10.37;;
5951;SDS011;3001;42.622;23.194;2023-06-22T03:33:18;10.73;;;9.93;;
5951;SDS011;3001;42.622;23.194;2023-06-22T03:35:45;10.13;;;9.33;;
5951;SDS011;3001;42.622;23.194;2023-06-22T03:38:11;10.63;;;9.87;;
5951;SDS011;3001;42.622;23.194;2023-06-22T03:40:38;11.20;;;10.27;;
5951;SDS011;3001;42.622;23.194;2023-06-22T03:43:05;10.70;;;9.77;;
5951;SDS011;3001;42.622;23.194;2023-06-22T03:45:33;10.37;;;9.57;;
5951;SDS011;3001;42.622;23.194;2023-06-22T03:48:00;11.17;;;10.20;;
5951;SDS011;3001;42.622;23.194;2023-06-22T03:50:26;11.23;;;10.43;;
5951;SDS011;3001;42.622;23.194;2023-06-22T03:52:53;11.20;;;9.90;;
5951;SDS011;3001;42.622;23.194;2023-06-22T03:55:20;10.77;;;9.80;;
5951;SDS011;3001;42.622;23.194;2023-06-22T03:57:47;10.90;;;10.00;;
5951;SDS011;3001;42.622;23.194;2023-06-22T04:00:14;10.40;;;9.60;;
5951;SDS011;3001;42.622;23.194;2023-06-22T04:02:43;10.73;;;9.90;;
5951;SDS011;3001;42.622;23.194;2023-06-22T04:05:10;10.23;;;9.43;;
5951;SDS011;3001;42.622;23.194;2023-06-22T04:07:36;10.10;;;9.30;;
5951;SDS011;3001;42.622;23.194;2023-06-22T04:10:03;11.20;;;10.40;;
5951;SDS011;3001;42.622;23.194;2023-06-22T04:12:30;10.97;;;9.97;;
5951;SDS011;3001;42.622;23.194;2023-06-22T04:14:57;11.57;;;10.80;;
5951;SDS011;3001;42.622;23.194;2023-06-22T04:17:23;10.93;;;10.13;;
5951;SDS011;3001;42.622;23.194;2023-06-22T04:19:52;10.70;;;10.00;;
5951;SDS011;3001;42.622;23.194;2023-06-22T04:22:19;11.10;;;10.40;;
5951;SDS011;3001;42.622;23.194;2023-06-22T04:24:45;11.17;;;10.07;;
5951;SDS011;3001;42.622;23.194;2023-06-22T04:27:12;10.83;;;10.03;;
5951;SDS011;3001;42.622;23.194;2023-06-22T04:29:39;10.37;;;9.67;;
5951;SDS011;3001;42.622;23.194;2023-06-22T04:32:14;10.30;;;9.60;;
5951;SDS011;3001;42.622;23.194;2023-06-22T04:34:40;11.07;;;10.27;;
5951;SDS011;3001;42.622;23.194;2023-06-22T04:37:08;11.97;;;10.87;;
5951;SDS011;3001;42.622;23.194;2023-06-22T04:39:40;10.63;;;9.87;;
5951;SDS011;3001;42.622;23.194;2023-06-22T04:42:07;11.20;;;10.40;;
5951;SDS011;3001;42.622;23.194;2023-06-22T04:44:34;11.23;;;10.50;;
5951;SDS011;3001;42.622;23.194;2023-06-22T04:47:01;10.37;;;9.67;;
5951;SDS011;3001;42.622;23.194;2023-06-22T04:49:33;9.83;;;9.20;;
5951;SDS011;3001;42.622;23.194;2023-06-22T04:52:02;10.10;;;9.20;;
5951;SDS011;3001;42.622;23.194;2023-06-22T04:54:32;9.77;;;8.97;;
5951;SDS011;3001;42.622;23.194;2023-06-22T04:56:59;9.63;;;9.03;;
5951;SDS011;3001;42.622;23.194;2023-06-22T04:59:26;9.40;;;8.77;;
5951;SDS011;3001;42.622;23.194;2023-06-22T05:01:55;9.57;;;8.90;;
5951;SDS011;3001;42.622;23.194;2023-06-22T05:04:21;10.43;;;9.53;;
5951;SDS011;3001;42.622;23.194;2023-06-22T05:06:49;9.80;;;9.03;;
5951;SDS011;3001;42.622;23.194;2023-06-22T05:09:16;11.03;;;10.20;;
5951;SDS011;3001;42.622;23.194;2023-06-22T05:11:44;10.40;;;9.70;;
5951;SDS011;3001;42.622;23.194;2023-06-22T05:14:11;10.73;;;10.13;;
5951;SDS011;3001;42.622;23.194;2023-06-22T05:16:38;10.00;;;9.23;;
5951;SDS011;3001;42.622;23.194;2023-06-22T05:19:05;9.83;;;9.13;;
5951;SDS011;3001;42.622;23.194;2023-06-22T05:21:32;10.57;;;9.87;;
5951;SDS011;3001;42.622;23.194;2023-06-22T05:23:58;9.57;;;9.00;;
5951;SDS011;3001;42.622;23.194;2023-06-22T05:26:27;10.70;;;9.80;;
5951;SDS011;3001;42.622;23.194;2023-06-22T05:28:56;10.27;;;9.67;;
5951;SDS011;3001;42.622;23.194;2023-06-22T05:31:23;10.20;;;9.50;;
5951;SDS011;3001;42.622;23.194;2023-06-22T05:33:50;10.30;;;9.70;;
5951;SDS011;3001;42.622;23.194;2023-06-22T05:36:18;10.27;;;9.47;;
5951;SDS011;3001;42.622;23.194;2023-06-22T05:38:46;11.03;;;10.27;;
5951;SDS011;3001;42.622;23.194;2023-06-22T05:41:13;11.00;;;10.33;;
5951;SDS011;3001;42.622;23.194;2023-06-22T05:43:40;10.47;;;9.77;;
5951;SDS011;3001;42.622;23.194;2023-06-22T05:46:08;11.43;;;10.43;;
5951;SDS011;3001;42.622;23.194;2023-06-22T05:48:35;11.23;;;10.17;;
5951;SDS011;3001;42.622;23.194;2023-06-22T05:51:01;11.23;;;10.53;;
5951;SDS011;3001;42.622;23.194;2023-06-22T05:53:28;11.30;;;10.40;;
5951;SDS011;3001;42.622;23.194;2023-06-22T05:55:55;11.13;;;10.03;;
5951;SDS011;3001;42.622;23.194;2023-06-22T05:58:22;11.17;;;10.47;;
5951;SDS011;3001;42.622;23.194;2023-06-22T06:00:48;10.97;;;9.90;;
5951;SDS011;3001;42.622;23.194;2023-06-22T06:03:16;11.17;;;10.37;;
5951;SDS011;3001;42.622;23.194;2023-06-22T06:05:43;11.00;;;10.10;;
5951;SDS011;3001;42.622;23.194;2023-06-22T06:08:10;11.37;;;10.33;;
5951;SDS011;3001;42.622;23.194;2023-06-22T06:10:37;11.73;;;10.93;;
5951;SDS011;3001;42.622;23.194;2023-06-22T06:13:04;11.80;;;10.90;;
5951;SDS011;3001;42.622;23.194;2023-06-22T06:15:31;12.70;;;10.83;;
5951;SDS011;3001;42.622;23.194;2023-06-22T06:17:58;11.37;;;10.50;;
5951;SDS011;3001;42.622;23.194;2023-06-22T06:20:26;19.07;;;17.03;;
5951;SDS011;3001;42.622;23.194;2023-06-22T06:22:54;18.00;;;16.10;;
5951;SDS011;3001;42.622;23.194;2023-06-22T06:25:21;13.10;;;12.10;;
5951;SDS011;3001;42.622;23.194;2023-06-22T06:27:48;11.60;;;10.83;;
5951;SDS011;3001;42.622;23.194;2023-06-22T06:30:17;12.27;;;10.80;;
5951;SDS011;3001;42.622;23.194;2023-06-22T06:32:45;11.53;;;10.53;;
5951;SDS011;3001;42.622;23.194;2023-06-22T06:35:13;11.03;;;10.33;;
5951;SDS011;3001;42.622;23.194;2023-06-22T06:37:43;11.60;;;10.80;;
5951;SDS011;3001;42.622;23.194;2023-06-22T06:40:11;11.80;;;11.00;;
5951;SDS011;3001;42.622;23.194;2023-06-22T06:42:39;11.40;;;10.60;;
5951;SDS011;3001;42.622;23.194;2023-06-22T06:45:10;11.50;;;9.87;;
5951;SDS011;3001;42.622;23.194;2023-06-22T06:47:37;11.70;;;10.97;;
5951;SDS011;3001;42.622;23.194;2023-06-22T06:50:05;11.13;;;10.43;;
5951;SDS011;3001;42.622;23.194;2023-06-22T06:52:32;10.70;;;10.00;;
5951;SDS011;3001;42.622;23.194;2023-06-22T06:55:00;11.90;;;10.83;;
5951;SDS011;3001;42.622;23.194;2023-06-22T06:57:29;10.50;;;9.70;;
5951;SDS011;3001;42.622;23.194;2023-06-22T06:59:56;10.27;;;9.60;;
5951;SDS011;3001;42.622;23.194;2023-06-22T07:02:23;11.30;;;10.43;;
5951;SDS011;3001;42.622;23.194;2023-06-22T07:04:51;10.27;;;9.47;;
5951;SDS011;3001;42.622;23.194;2023-06-22T07:07:17;11.13;;;9.67;;
5951;SDS011;3001;42.622;23.194;2023-06-22T07:09:44;10.87;;;10.10;;
5951;SDS011;3001;42.622;23.194;2023-06-22T07:12:12;11.23;;;10.33;;
5951;SDS011;3001;42.622;23.194;2023-06-22T07:14:39;10.97;;;10.23;;
5951;SDS011;3001;42.622;23.194;2023-06-22T07:17:05;11.40;;;10.60;;
5951;SDS011;3001;42.622;23.194;2023-06-22T07:19:32;10.27;;;9.67;;
5951;SDS011;3001;42.622;23.194;2023-06-22T07:21:59;11.37;;;10.40;;
5951;SDS011;3001;42.622;23.194;2023-06-22T07:24:26;11.33;;;10.47;;
5951;SDS011;3001;42.622;23.194;2023-06-22T07:26:53;11.50;;;10.70;;
5951;SDS011;3001;42.622;23.194;2023-06-22T07:29:21;11.67;;;10.50;;
5951;SDS011;3001;42.622;23.194;2023-06-22T07:31:48;10.73;;;10.13;;
5951;SDS011;3001;42.622;23.194;2023-06-22T07:34:16;10.60;;;9.97;;
5951;SDS011;3001;42.622;23.194;2023-06-22T07:36:43;10.83;;;10.03;;
5951;SDS011;3001;42.622;23.194;2023-06-22T07:39:10;9.93;;;9.40;;
5951;SDS011;3001;42.622;23.194;2023-06-22T07:41:38;10.80;;;10.13;;
5951;SDS011;3001;42.622;23.194;2023-06-22T07:44:05;9.53;;;8.93;;
5951;SDS011;3001;42.622;23.194;2023-06-22T07:46:33;8.90;;;8.40;;
5951;SDS011;3001;42.622;23.194;2023-06-22T07:49:00;8.97;;;8.37;;
5951;SDS011;3001;42.622;23.194;2023-06-22T07:51:27;9.30;;;8.53;;
5951;SDS011;3001;42.622;23.194;2023-06-22T07:53:54;9.03;;;8.47;;
5951;SDS011;3001;42.622;23.194;2023-06-22T07:56:21;9.43;;;8.83;;
5951;SDS011;3001;42.622;23.194;2023-06-22T07:58:47;9.80;;;9.00;;
5951;SDS011;3001;42.622;23.194;2023-06-22T08:01:14;9.67;;;9.17;;
5951;SDS011;3001;42.622;23.194;2023-06-22T08:03:43;10.50;;;9.98;;
5951;SDS011;3001;42.622;23.194;2023-06-22T08:06:09;11.95;;;11.05;;
5951;SDS011;3001;42.622;23.194;2023-06-22T08:08:36;11.43;;;10.60;;
5951;SDS011;3001;42.622;23.194;2023-06-22T08:11:03;11.60;;;10.80;;
5951;SDS011;3001;42.622;23.194;2023-06-22T08:13:30;11.83;;;10.90;;
5951;SDS011;3001;42.622;23.194;2023-06-22T08:15:57;11.83;;;10.93;;
5951;SDS011;3001;42.622;23.194;2023-06-22T08:18:24;13.75;;;12.80;;
5951;SDS011;3001;42.622;23.194;2023-06-22T08:20:52;11.47;;;10.60;;
5951;SDS011;3001;42.622;23.194;2023-06-22T08:23:18;11.87;;;10.97;;
5951;SDS011;3001;42.622;23.194;2023-06-22T08:25:45;12.27;;;11.33;;
5951;SDS011;3001;42.622;23.194;2023-06-22T08:28:13;12.27;;;11.53;;
5951;SDS011;3001;42.622;23.194;2023-06-22T08:30:39;12.70;;;11.70;;
5951;SDS011;3001;42.622;23.194;2023-06-22T08:33:06;13.63;;;12.63;;
5951;SDS011;3001;42.622;23.194;2023-06-22T08:35:33;12.75;;;11.75;;
5951;SDS011;3001;42.622;23.194;2023-06-22T08:38:01;12.43;;;11.43;;
5951;SDS011;3001;42.622;23.194;2023-06-22T08:40:28;10.38;;;9.77;;
5951;SDS011;3001;42.622;23.194;2023-06-22T08:42:55;10.32;;;9.75;;
5951;SDS011;3001;42.622;23.194;2023-06-22T08:45:22;12.00;;;10.95;;
5951;SDS011;3001;42.622;23.194;2023-06-22T08:47:48;9.33;;;8.93;;
5951;SDS011;3001;42.622;23.194;2023-06-22T08:50:15;9.73;;;9.13;;
5951;SDS011;3001;42.622;23.194;2023-06-22T08:52:42;9.50;;;8.90;;
5951;SDS011;3001;42.622;23.194;2023-06-22T08:55:10;9.23;;;8.70;;
5951;SDS011;3001;42.622;23.194;2023-06-22T08:57:37;9.57;;;8.98;;
5951;SDS011;3001;42.622;23.194;2023-06-22T09:00:05;9.43;;;8.93;;
5951;SDS011;3001;42.622;23.194;2023-06-22T09:02:40;9.80;;;9.30;;
5951;SDS011;3001;42.622;23.194;2023-06-22T09:05:07;10.23;;;9.73;;
5951;SDS011;3001;42.622;23.194;2023-06-22T09:07:34;10.18;;;9.57;;
5951;SDS011;3001;42.622;23.194;2023-06-22T09:10:01;10.43;;;9.85;;
5951;SDS011;3001;42.622;23.194;2023-06-22T09:12:31;10.30;;;9.63;;
5951;SDS011;3001;42.622;23.194;2023-06-22T09:14:58;9.82;;;9.23;;
5951;SDS011;3001;42.622;23.194;2023-06-22T09:17:25;10.73;;;10.13;;
5951;SDS011;3001;42.622;23.194;2023-06-22T09:19:52;9.40;;;8.90;;
5951;SDS011;3001;42.622;23.194;2023-06-22T09:22:19;9.23;;;8.65;;
5951;SDS011;3001;42.622;23.194;2023-06-22T09:24:46;10.55;;;9.95;;
5951;SDS011;3001;42.622;23.194;2023-06-22T09:27:13;9.63;;;9.23;;
5951;SDS011;3001;42.622;23.194;2023-06-22T09:29:41;10.27;;;9.70;;
5951;SDS011;3001;42.622;23.194;2023-06-22T09:32:08;9.20;;;8.65;;
5951;SDS011;3001;42.622;23.194;2023-06-22T09:34:34;9.73;;;9.23;;
5951;SDS011;3001;42.622;23.194;2023-06-22T09:37:01;9.77;;;9.27;;
5951;SDS011;3001;42.622;23.194;2023-06-22T09:39:28;9.55;;;9.05;;
5951;SDS011;3001;42.622;23.194;2023-06-22T09:41:57;9.30;;;8.90;;
5951;SDS011;3001;42.622;23.194;2023-06-22T09:44:24;10.55;;;9.98;;
5951;SDS011;3001;42.622;23.194;2023-06-22T09:46:52;10.30;;;9.38;;
5951;SDS011;3001;42.622;23.194;2023-06-22T09:49:19;9.38;;;8.90;;
5951;SDS011;3001;42.622;23.194;2023-06-22T09:51:45;9.35;;;8.85;;
5951;SDS011;3001;42.622;23.194;2023-06-22T09:54:12;9.00;;;8.55;;
5951;SDS011;3001;42.622;23.194;2023-06-22T09:56:39;9.70;;;9.02;;
5951;SDS011;3001;42.622;23.194;2023-06-22T09:59:06;9.90;;;9.40;;
5951;SDS011;3001;42.622;23.194;2023-06-22T10:01:32;9.38;;;8.77;;
5951;SDS011;3001;42.622;23.194;2023-06-22T10:04:01;8.85;;;8.35;;
5951;SDS011;3001;42.622;23.194;2023-06-22T10:06:28;9.48;;;8.90;;
5951;SDS011;3001;42.622;23.194;2023-06-22T10:08:55;9.95;;;9.45;;
5951;SDS011;3001;42.622;23.194;2023-06-22T10:11:21;9.23;;;8.70;;
5951;SDS011;3001;42.622;23.194;2023-06-22T10:13:54;8.63;;;8.23;;
5951;SDS011;3001;42.622;23.194;2023-06-22T10:16:20;9.45;;;8.95;;
5951;SDS011;3001;42.622;23.194;2023-06-22T10:18:47;8.57;;;8.18;;
5951;SDS011;3001;42.622;23.194;2023-06-22T10:21:15;8.75;;;8.25;;
5951;SDS011;3001;42.622;23.194;2023-06-22T10:23:42;8.48;;;8.15;;
5951;SDS011;3001;42.622;23.194;2023-06-22T10:26:08;8.57;;;7.97;;
5951;SDS011;3001;42.622;23.194;2023-06-22T10:28:35;8.68;;;8.27;;
5951;SDS011;3001;42.622;23.194;2023-06-22T10:31:02;9.52;;;8.93;;
5951;SDS011;3001;42.622;23.194;2023-06-22T10:33:28;9.05;;;8.65;;
5951;SDS011;3001;42.622;23.194;2023-06-22T10:35:55;9.15;;;8.65;;
5951;SDS011;3001;42.622;23.194;2023-06-22T10:38:23;9.63;;;9.00;;
5951;SDS011;3001;42.622;23.194;2023-06-22T10:40:50;9.52;;;9.02;;
5951;SDS011;3001;42.622;23.194;2023-06-22T10:43:16;8.85;;;8.45;;
5951;SDS011;3001;42.622;23.194;2023-06-22T10:45:44;8.38;;;7.97;;
5951;SDS011;3001;42.622;23.194;2023-06-22T10:48:11;8.73;;;8.23;;
5951;SDS011;3001;42.622;23.194;2023-06-22T10:50:38;9.93;;;8.93;;
5951;SDS011;3001;42.622;23.194;2023-06-22T10:53:05;8.75;;;8.02;;
5951;SDS011;3001;42.622;23.194;2023-06-22T10:55:33;8.80;;;8.38;;
5951;SDS011;3001;42.622;23.194;2023-06-22T10:57:59;8.15;;;7.75;;
5951;SDS011;3001;42.622;23.194;2023-06-22T11:00:26;8.27;;;7.88;;
5951;SDS011;3001;42.622;23.194;2023-06-22T11:02:52;8.40;;;7.88;;
5951;SDS011;3001;42.622;23.194;2023-06-22T11:05:19;8.80;;;8.40;;
5951;SDS011;3001;42.622;23.194;2023-06-22T11:07:46;8.50;;;8.10;;
5951;SDS011;3001;42.622;23.194;2023-06-22T11:10:14;8.23;;;7.88;;
5951;SDS011;3001;42.622;23.194;2023-06-22T11:12:42;7.90;;;7.55;;
5951;SDS011;3001;42.622;23.194;2023-06-22T11:15:09;8.35;;;7.85;;
5951;SDS011;3001;42.622;23.194;2023-06-22T11:17:36;8.35;;;7.95;;
5951;SDS011;3001;42.622;23.194;2023-06-22T11:20:03;7.60;;;7.22;;
5951;SDS011;3001;42.622;23.194;2023-06-22T11:22:35;8.65;;;8.15;;
5951;SDS011;3001;42.622;23.194;2023-06-22T11:25:02;7.78;;;7.38;;
5951;SDS011;3001;42.622;23.194;2023-06-22T11:27:29;8.55;;;8.15;;
5951;SDS011;3001;42.622;23.194;2023-06-22T11:29:57;8.20;;;7.68;;
5951;SDS011;3001;42.622;23.194;2023-06-22T11:32:24;7.93;;;7.53;;
5951;SDS011;3001;42.622;23.194;2023-06-22T11:34:51;8.68;;;8.27;;
5951;SDS011;3001;42.622;23.194;2023-06-22T11:37:17;9.38;;;8.88;;
5951;SDS011;3001;42.622;23.194;2023-06-22T11:39:44;9.27;;;8.60;;
5951;SDS011;3001;42.622;23.194;2023-06-22T11:42:10;9.10;;;8.60;;
5951;SDS011;3001;42.622;23.194;2023-06-22T11:44:37;9.35;;;8.85;;
5951;SDS011;3001;42.622;23.194;2023-06-22T11:47:06;8.60;;;7.93;;
5951;SDS011;3001;42.622;23.194;2023-06-22T11:49:33;9.07;;;8.57;;
5951;SDS011;3001;42.622;23.194;2023-06-22T11:51:59;9.10;;;8.55;;
5951;SDS011;3001;42.622;23.194;2023-06-22T11:54:26;9.63;;;9.13;;
5951;SDS011;3001;42.622;23.194;2023-06-22T11:56:52;9.45;;;8.95;;
5951;SDS011;3001;42.622;23.194;2023-06-22T11:59:19;10.02;;;9.43;;
5951;SDS011;3001;42.622;23.194;2023-06-22T12:01:47;9.45;;;8.95;;
5951;SDS011;3001;42.622;23.194;2023-06-22T12:04:17;9.75;;;9.25;;
5951;SDS011;3001;42.622;23.194;2023-06-22T12:06:43;9.75;;;9.15;;
5951;SDS011;3001;42.622;23.194;2023-06-22T12:09:10;10.50;;;9.45;;
5951;SDS011;3001;42.622;23.194;2023-06-22T12:11:38;9.25;;;8.85;;
5951;SDS011;3001;42.622;23.194;2023-06-22T12:14:05;9.65;;;9.02;;
5951;SDS011;3001;42.622;23.194;2023-06-22T12:16:32;9.25;;;8.75;;
5951;SDS011;3001;42.622;23.194;2023-06-22T12:18:58;10.13;;;9.52;;
5951;SDS011;3001;42.622;23.194;2023-06-22T12:21:26;9.45;;;9.05;;
5951;SDS011;3001;42.622;23.194;2023-06-22T12:23:54;9.55;;;8.95;;
5951;SDS011;3001;42.622;23.194;2023-06-22T12:26:21;9.55;;;8.95;;
5951;SDS011;3001;42.622;23.194;2023-06-22T12:28:47;9.70;;;9.20;;
5951;SDS011;3001;42.622;23.194;2023-06-22T12:31:14;9.73;;;9.23;;
5951;SDS011;3001;42.622;23.194;2023-06-22T12:33:41;10.93;;;9.75;;
5951;SDS011;3001;42.622;23.194;2023-06-22T12:36:07;9.57;;;8.98;;
5951;SDS011;3001;42.622;23.194;2023-06-22T12:38:35;9.73;;;9.02;;
5951;SDS011;3001;42.622;23.194;2023-06-22T12:41:02;10.07;;;9.52;;
5951;SDS011;3001;42.622;23.194;2023-06-22T12:43:29;9.88;;;9.27;;
5951;SDS011;3001;42.622;23.194;2023-06-22T12:45:55;10.07;;;9.25;;
5951;SDS011;3001;42.622;23.194;2023-06-22T12:48:22;10.85;;;10.23;;
5951;SDS011;3001;42.622;23.194;2023-06-22T12:50:50;11.30;;;10.50;;
5951;SDS011;3001;42.622;23.194;2023-06-22T12:53:16;10.63;;;10.02;;
5951;SDS011;3001;42.622;23.194;2023-06-22T12:55:44;10.88;;;10.25;;
5951;SDS011;3001;42.622;23.194;2023-06-22T12:58:11;10.13;;;9.30;;
5951;SDS011;3001;42.622;23.194;2023-06-22T13:00:38;9.43;;;8.93;;
5951;SDS011;3001;42.622;23.194;2023-06-22T13:03:05;10.50;;;9.80;;
5951;SDS011;3001;42.622;23.194;2023-06-22T13:05:32;10.70;;;9.75;;
5951;SDS011;3001;42.622;23.194;2023-06-22T13:08:00;10.38;;;9.57;;
5951;SDS011;3001;42.622;23.194;2023-06-22T13:10:26;10.90;;;9.40;;
5951;SDS011;3001;42.622;23.194;2023-06-22T13:12:54;8.53;;;8.07;;
5951;SDS011;3001;42.622;23.194;2023-06-22T13:15:25;9.10;;;8.30;;
5951;SDS011;3001;42.622;23.194;2023-06-22T13:17:52;8.93;;;8.17;;
5951;SDS011;3001;42.622;23.194;2023-06-22T13:20:19;8.47;;;7.73;;
5951;SDS011;3001;42.622;23.194;2023-06-22T13:34:02;8.73;;;8.03;;
5951;SDS011;3001;42.622;23.194;2023-06-22T13:36:29;9.03;;;8.17;;
5951;SDS011;3001;42.622;23.194;2023-06-22T13:38:55;9.73;;;9.03;;
5951;SDS011;3001;42.622;23.194;2023-06-22T13:41:22;8.17;;;7.37;;
5951;SDS011;3001;42.622;23.194;2023-06-22T13:43:49;8.97;;;8.40;;
5951;SDS011;3001;42.622;23.194;2023-06-22T13:46:15;8.77;;;8.13;;
5951;SDS011;3001;42.622;23.194;2023-06-22T13:48:42;8.80;;;8.17;;
5951;SDS011;3001;42.622;23.194;2023-06-22T13:51:10;8.23;;;7.70;;
5951;SDS011;3001;42.622;23.194;2023-06-22T13:53:37;9.00;;;8.40;;
5951;SDS011;3001;42.622;23.194;2023-06-22T13:56:04;9.33;;;8.73;;
5951;SDS011;3001;42.622;23.194;2023-06-22T13:58:30;8.30;;;7.90;;
5951;SDS011;3001;42.622;23.194;2023-06-22T14:00:57;9.77;;;9.10;;
5951;SDS011;3001;42.622;23.194;2023-06-22T14:03:24;9.87;;;9.07;;
5951;SDS011;3001;42.622;23.194;2023-06-22T14:05:51;9.77;;;9.13;;
5951;SDS011;3001;42.622;23.194;2023-06-22T14:08:20;10.70;;;9.80;;
5951;SDS011;3001;42.622;23.194;2023-06-22T14:10:48;11.03;;;10.33;;
5951;SDS011;3001;42.622;23.194;2023-06-22T14:13:15;10.33;;;9.53;;
5951;SDS011;3001;42.622;23.194;2023-06-22T14:15:42;9.50;;;8.73;;
5951;SDS011;3001;42.622;23.194;2023-06-22T14:18:09;10.87;;;9.97;;
5951;SDS011;3001;42.622;23.194;2023-06-22T14:20:35;9.70;;;9.00;;
5951;SDS011;3001;42.622;23.194;2023-06-22T14:23:02;10.67;;;9.80;;
5951;SDS011;3001;42.622;23.194;2023-06-22T14:25:30;9.97;;;9.37;;
5951;SDS011;3001;42.622;23.194;2023-06-22T14:27:56;9.47;;;8.70;;
5951;SDS011;3001;42.622;23.194;2023-06-22T14:30:23;10.47;;;9.70;;
5951;SDS011;3001;42.622;23.194;2023-06-22T14:32:50;9.30;;;8.80;;
5951;SDS011;3001;42.622;23.194;2023-06-22T14:35:17;10.23;;;9.63;;
5951;SDS011;3001;42.622;23.194;2023-06-22T14:37:43;10.13;;;9.33;;
5951;SDS011;3001;42.622;23.194;2023-06-22T14:40:11;10.47;;;9.73;;
5951;SDS011;3001;42.622;23.194;2023-06-22T14:42:39;10.63;;;9.73;;
5951;SDS011;3001;42.622;23.194;2023-06-22T14:45:06;10.57;;;9.97;;
5951;SDS011;3001;42.622;23.194;2023-06-22T14:47:33;11.67;;;10.93;;
5951;SDS011;3001;42.622;23.194;2023-06-22T14:50:00;13.17;;;11.17;;
5951;SDS011;3001;42.622;23.194;2023-06-22T14:52:27;12.83;;;11.63;;
5951;SDS011;3001;42.622;23.194;2023-06-22T14:54:53;11.70;;;10.80;;
5951;SDS011;3001;42.622;23.194;2023-06-22T14:57:21;11.53;;;10.73;;
5951;SDS011;3001;42.622;23.194;2023-06-22T14:59:49;11.43;;;10.73;;
5951;SDS011;3001;42.622;23.194;2023-06-22T15:02:16;12.23;;;11.33;;
5951;SDS011;3001;42.622;23.194;2023-06-22T15:04:43;13.10;;;12.23;;
5951;SDS011;3001;42.622;23.194;2023-06-22T15:07:10;13.60;;;12.60;;